sensor_id;sensor_type;location;lat;lon;timestamp;pressure;altitude;pressure_sealevel;temperature;humidity
13420;BME280;6781;58.440;15.470;2023-04-28T00:01:20;100763.91;;;0.78;100.00
13420;BME280;6781;58.440;15.470;2023-04-28T00:03:48;100740.75;;;0.36;100.00
13420;BME280;6781;58.440;15.470;2023-04-28T00:06:17;100910.16;;;1.53;100.00
13420;BME280;6781;58.440;15.470;2023-04-28T00:08:45;100801.88;;;0.87;100.00
13420;BME280;6781;58.440;15.470;2023-04-28T00:11:12;100908.44;;;1.53;100.00
13420;BME280;6781;58.440;15.470;2023-04-28T00:13:41;100928.06;;;1.53;100.00
13420;BME280;6781;58.440;15.470;2023-04-28T00:16:10;100646.81;;;-0.25;100.00
13420;BME280;6781;58.440;15.470;2023-04-28T00:18:37;100955.41;;;1.26;100.00
13420;BME280;6781;58.440;15.470;2023-04-28T00:21:13;100813.81;;;0.61;100.00
13420;BME280;6781;58.440;15.470;2023-04-28T00:23:42;100937.38;;;1.30;100.00
13420;BME280;6781;58.440;15.470;2023-04-28T00:26:09;100930.59;;;1.29;100.00
13420;BME280;6781;58.440;15.470;2023-04-28T00:28:37;100934.25;;;1.22;100.00
13420;BME280;6781;58.440;15.470;2023-04-28T00:31:10;100729.97;;;0.03;100.00
13420;BME280;6781;58.440;15.470;2023-04-28T00:33:37;100947.38;;;1.37;100.00
13420;BME280;6781;58.440;15.470;2023-04-28T00:36:05;100807.25;;;0.54;100.00
13420;BME280;6781;58.440;15.470;2023-04-28T00:38:35;100757.91;;;0.06;100.00
13420;BME280;6781;58.440;15.470;2023-04-28T00:41:02;100805.69;;;0.50;100.00
13420;BME280;6781;58.440;15.470;2023-04-28T00:43:29;100788.22;;;0.40;100.00
13420;BME280;6781;58.440;15.470;2023-04-28T00:45:56;100679.75;;;-0.45;100.00
13420;BME280;6781;58.440;15.470;2023-04-28T00:48:26;100694.53;;;-0.30;100.00
13420;BME280;6781;58.440;15.470;2023-04-28T00:50:54;100900.13;;;1.00;100.00
13420;BME280;6781;58.440;15.470;2023-04-28T00:53:21;100843.91;;;0.77;100.00
13420;BME280;6781;58.440;15.470;2023-04-28T00:55:51;100953.09;;;1.43;100.00
13420;BME280;6781;58.440;15.470;2023-04-28T00:58:21;100955.03;;;1.37;100.00
13420;BME280;6781;58.440;15.470;2023-04-28T01:00:49;100907.56;;;0.81;100.00
13420;BME280;6781;58.440;15.470;2023-04-28T01:03:16;100951.34;;;1.20;100.00
13420;BME280;6781;58.440;15.470;2023-04-28T01:05:45;100921.63;;;0.93;100.00
13420;BME280;6781;58.440;15.470;2023-04-28T01:08:12;100792.34;;;0.17;100.00
13420;BME280;6781;58.440;15.470;2023-04-28T01:10:42;100941.13;;;1.20;100.00
13420;BME280;6781;58.440;15.470;2023-04-28T01:13:09;100781.13;;;0.23;100.00
13420;BME280;6781;58.440;15.470;2023-04-28T01:15:37;100745.00;;;-0.15;100.00
13420;BME280;6781;58.440;15.470;2023-04-28T01:18:04;100937.84;;;1.17;100.00
13420;BME280;6781;58.440;15.470;2023-04-28T01:20:31;100919.56;;;1.04;100.00
13420;BME280;6781;58.440;15.470;2023-04-28T01:23:00;100799.50;;;0.32;100.00
13420;BME280;6781;58.440;15.470;2023-04-28T01:25:29;100690.13;;;-0.51;100.00
13420;BME280;6781;58.440;15.470;2023-04-28T01:27:56;100792.81;;;0.04;100.00
13420;BME280;6781;58.440;15.470;2023-04-28T01:30:24;100693.91;;;-0.37;100.00
13420;BME280;6781;58.440;15.470;2023-04-28T01:32:51;100743.72;;;-0.28;100.00
13420;BME280;6781;58.440;15.470;2023-04-28T01:35:18;100961.09;;;1.09;100.00
13420;BME280;6781;58.440;15.470;2023-04-28T01:37:45;100986.78;;;1.29;100.00
13420;BME280;6781;58.440;15.470;2023-04-28T01:40:12;101003.09;;;1.25;100.00
13420;BME280;6781;58.440;15.470;2023-04-28T01:42:41;100884.00;;;0.48;100.00
13420;BME280;6781;58.440;15.470;2023-04-28T01:45:09;100771.66;;;-0.25;100.00
13420;BME280;6781;58.440;15.470;2023-04-28T01:47:36;100961.81;;;0.88;100.00
13420;BME280;6781;58.440;15.470;2023-04-28T01:50:04;100962.31;;;0.73;100.00
13420;BME280;6781;58.440;15.470;2023-04-28T01:52:32;101012.25;;;1.06;100.00
13420;BME280;6781;58.440;15.470;2023-04-28T01:55:00;100957.69;;;0.84;100.00
13420;BME280;6781;58.440;15.470;2023-04-28T01:57:27;100961.31;;;0.77;100.00
13420;BME280;6781;58.440;15.470;2023-04-28T01:59:55;101007.31;;;1.02;100.00
13420;BME280;6781;58.440;15.470;2023-04-28T02:02:23;100812.31;;;-0.22;100.00
13420;BME280;6781;58.440;15.470;2023-04-28T02:07:26;100967.75;;;0.62;100.00
13420;BME280;6781;58.440;15.470;2023-04-28T02:09:53;100875.47;;;-0.04;100.00
13420;BME280;6781;58.440;15.470;2023-04-28T02:12:20;100996.50;;;0.67;100.00
13420;BME280;6781;58.440;15.470;2023-04-28T02:14:47;101011.47;;;0.51;100.00
13420;BME280;6781;58.440;15.470;2023-04-28T02:17:15;101038.03;;;0.72;100.00
13420;BME280;6781;58.440;15.470;2023-04-28T02:19:42;101025.09;;;0.50;100.00
13420;BME280;6781;58.440;15.470;2023-04-28T02:22:09;101043.81;;;0.77;100.00
13420;BME280;6781;58.440;15.470;2023-04-28T02:24:37;100994.38;;;0.53;100.00
13420;BME280;6781;58.440;15.470;2023-04-28T02:27:04;101044.63;;;0.79;100.00
13420;BME280;6781;58.440;15.470;2023-04-28T02:29:33;101043.72;;;0.80;100.00
13420;BME280;6781;58.440;15.470;2023-04-28T02:32:00;100796.59;;;-0.92;100.00
13420;BME280;6781;58.440;15.470;2023-04-28T02:34:30;100920.13;;;0.08;100.00
13420;BME280;6781;58.440;15.470;2023-04-28T02:36:57;101030.00;;;0.56;100.00
13420;BME280;6781;58.440;15.470;2023-04-28T02:39:27;100970.19;;;0.11;100.00
13420;BME280;6781;58.440;15.470;2023-04-28T02:41:55;101079.19;;;0.61;100.00
13420;BME280;6781;58.440;15.470;2023-04-28T02:44:22;101057.75;;;0.67;100.00
13420;BME280;6781;58.440;15.470;2023-04-28T02:46:49;100937.09;;;-0.19;100.00
13420;BME280;6781;58.440;15.470;2023-04-28T02:49:16;100920.84;;;-0.15;100.00
13420;BME280;6781;58.440;15.470;2023-04-28T02:51:47;101064.63;;;0.65;100.00
13420;BME280;6781;58.440;15.470;2023-04-28T02:54:14;100915.13;;;-0.23;100.00
13420;BME280;6781;58.440;15.470;2023-04-28T02:56:41;101053.56;;;0.64;100.00
13420;BME280;6781;58.440;15.470;2023-04-28T02:59:08;100800.53;;;-1.11;100.00
13420;BME280;6781;58.440;15.470;2023-04-28T03:01:35;101047.22;;;0.50;100.00
13420;BME280;6781;58.440;15.470;2023-04-28T03:04:03;101073.69;;;0.46;100.00
13420;BME280;6781;58.440;15.470;2023-04-28T03:06:30;100802.19;;;-1.10;100.00
13420;BME280;6781;58.440;15.470;2023-04-28T03:09:02;101048.63;;;0.30;100.00
13420;BME280;6781;58.440;15.470;2023-04-28T03:11:29;100891.06;;;-0.72;100.00
13420;BME280;6781;58.440;15.470;2023-04-28T03:13:57;100909.25;;;-0.54;100.00
13420;BME280;6781;58.440;15.470;2023-04-28T03:16:25;100805.47;;;-1.38;100.00
13420;BME280;6781;58.440;15.470;2023-04-28T03:18:52;101096.78;;;0.41;100.00
13420;BME280;6781;58.440;15.470;2023-04-28T03:21:19;100932.69;;;-0.43;100.00
13420;BME280;6781;58.440;15.470;2023-04-28T03:23:46;100927.69;;;-0.46;100.00
13420;BME280;6781;58.440;15.470;2023-04-28T03:26:14;100822.19;;;-1.29;100.00
13420;BME280;6781;58.440;15.470;2023-04-28T03:28:42;100924.28;;;-0.76;100.00
13420;BME280;6781;58.440;15.470;2023-04-28T03:31:09;101104.53;;;0.38;100.00
13420;BME280;6781;58.440;15.470;2023-04-28T03:33:36;101068.81;;;0.38;100.00
13420;BME280;6781;58.440;15.470;2023-04-28T03:36:03;101073.88;;;0.40;100.00
13420;BME280;6781;58.440;15.470;2023-04-28T03:38:31;100926.59;;;-0.69;100.00
13420;BME280;6781;58.440;15.470;2023-04-28T03:40:58;100980.63;;;-0.26;100.00
13420;BME280;6781;58.440;15.470;2023-04-28T03:43:26;100808.47;;;-1.23;100.00
13420;BME280;6781;58.440;15.470;2023-04-28T03:45:53;100904.44;;;-0.65;100.00
13420;BME280;6781;58.440;15.470;2023-04-28T03:48:20;100969.38;;;-0.19;100.00
13420;BME280;6781;58.440;15.470;2023-04-28T03:50:48;100986.47;;;-0.23;100.00
13420;BME280;6781;58.440;15.470;2023-04-28T03:53:15;100968.38;;;-0.14;100.00
13420;BME280;6781;58.440;15.470;2023-04-28T03:55:55;100962.66;;;-0.22;100.00
13420;BME280;6781;58.440;15.470;2023-04-28T03:58:22;100821.28;;;-1.26;100.00
13420;BME280;6781;58.440;15.470;2023-04-28T04:00:51;100951.06;;;-0.63;100.00
13420;BME280;6781;58.440;15.470;2023-04-28T04:03:18;100965.56;;;-0.34;100.00
13420;BME280;6781;58.440;15.470;2023-04-28T04:05:47;100958.00;;;-0.37;100.00
13420;BME280;6781;58.440;15.470;2023-04-28T04:08:14;100998.06;;;-0.13;100.00
13420;BME280;6781;58.440;15.470;2023-04-28T04:10:41;100986.22;;;-0.14;100.00
13420;BME280;6781;58.440;15.470;2023-04-28T04:13:09;101113.25;;;0.60;100.00
13420;BME280;6781;58.440;15.470;2023-04-28T04:15:38;100854.50;;;-1.00;100.00
13420;BME280;6781;58.440;15.470;2023-04-28T04:18:13;100977.69;;;-0.13;100.00
13420;BME280;6781;58.440;15.470;2023-04-28T04:20:41;100932.75;;;-0.45;100.00
13420;BME280;6781;58.440;15.470;2023-04-28T04:23:14;100862.94;;;-0.98;100.00
13420;BME280;6781;58.440;15.470;2023-04-28T04:25:41;101109.72;;;0.64;100.00
13420;BME280;6781;58.440;15.470;2023-04-28T04:28:08;101074.06;;;0.33;100.00
13420;BME280;6781;58.440;15.470;2023-04-28T04:30:35;101120.97;;;0.57;100.00
13420;BME280;6781;58.440;15.470;2023-04-28T04:33:05;101130.22;;;0.61;100.00
13420;BME280;6781;58.440;15.470;2023-04-28T04:35:34;100994.16;;;-0.24;100.00
13420;BME280;6781;58.440;15.470;2023-04-28T04:38:04;101145.19;;;0.74;100.00
13420;BME280;6781;58.440;15.470;2023-04-28T04:40:31;100912.66;;;-0.55;100.00
13420;BME280;6781;58.440;15.470;2023-04-28T04:43:00;101161.97;;;0.81;100.00
13420;BME280;6781;58.440;15.470;2023-04-28T04:45:29;101163.59;;;0.83;100.00
13420;BME280;6781;58.440;15.470;2023-04-28T04:47:57;101032.41;;;0.04;100.00
13420;BME280;6781;58.440;15.470;2023-04-28T04:50:29;101093.19;;;0.48;100.00
13420;BME280;6781;58.440;15.470;2023-04-28T04:52:59;100939.09;;;-0.59;100.00
13420;BME280;6781;58.440;15.470;2023-04-28T04:55:29;100972.75;;;-0.19;100.00
13420;BME280;6781;58.440;15.470;2023-04-28T04:58:03;100885.34;;;-0.80;100.00
13420;BME280;6781;58.440;15.470;2023-04-28T05:00:31;100901.94;;;-0.67;100.00
13420;BME280;6781;58.440;15.470;2023-04-28T05:03:04;101224.22;;;1.06;100.00
13420;BME280;6781;58.440;15.470;2023-04-28T05:05:34;101027.94;;;0.12;100.00
13420;BME280;6781;58.440;15.470;2023-04-28T05:08:03;101196.81;;;1.11;100.00
13420;BME280;6781;58.440;15.470;2023-04-28T05:10:30;100986.13;;;-0.11;100.00
13420;BME280;6781;58.440;15.470;2023-04-28T05:13:04;101200.44;;;1.04;100.00
13420;BME280;6781;58.440;15.470;2023-04-28T05:15:31;101200.84;;;1.18;100.00
13420;BME280;6781;58.440;15.470;2023-04-28T05:17:58;101239.38;;;1.40;100.00
13420;BME280;6781;58.440;15.470;2023-04-28T05:20:30;101113.06;;;0.67;100.00
13420;BME280;6781;58.440;15.470;2023-04-28T05:22:57;101187.28;;;1.16;100.00
13420;BME280;6781;58.440;15.470;2023-04-28T05:25:26;100970.84;;;-0.11;100.00
13420;BME280;6781;58.440;15.470;2023-04-28T05:27:53;101250.41;;;1.69;100.00
13420;BME280;6781;58.440;15.470;2023-04-28T05:30:20;101198.13;;;1.24;100.00
13420;BME280;6781;58.440;15.470;2023-04-28T05:32:47;101239.13;;;1.74;100.00
13420;BME280;6781;58.440;15.470;2023-04-28T05:35:14;101278.94;;;2.08;100.00
13420;BME280;6781;58.440;15.470;2023-04-28T05:37:44;101289.31;;;2.03;100.00
13420;BME280;6781;58.440;15.470;2023-04-28T05:40:12;101302.88;;;2.32;100.00
13420;BME280;6781;58.440;15.470;2023-04-28T05:42:40;101287.00;;;2.22;100.00
13420;BME280;6781;58.440;15.470;2023-04-28T05:45:09;101170.22;;;1.45;100.00
13420;BME280;6781;58.440;15.470;2023-04-28T05:47:36;101189.06;;;1.69;100.00
13420;BME280;6781;58.440;15.470;2023-04-28T05:50:04;101307.72;;;2.66;100.00
13420;BME280;6781;58.440;15.470;2023-04-28T05:52:31;101313.75;;;2.88;100.00
13420;BME280;6781;58.440;15.470;2023-04-28T05:54:58;101235.00;;;2.46;100.00
13420;BME280;6781;58.440;15.470;2023-04-28T05:57:25;101292.31;;;2.90;100.00
13420;BME280;6781;58.440;15.470;2023-04-28T05:59:54;101304.03;;;3.21;100.00
13420;BME280;6781;58.440;15.470;2023-04-28T06:02:21;101258.06;;;2.93;100.00
13420;BME280;6781;58.440;15.470;2023-04-28T06:04:47;101256.16;;;3.21;100.00
13420;BME280;6781;58.440;15.470;2023-04-28T06:07:15;101260.59;;;3.40;100.00
13420;BME280;6781;58.440;15.470;2023-04-28T06:09:42;101255.13;;;3.69;100.00
13420;BME280;6781;58.440;15.470;2023-04-28T06:12:09;101259.47;;;3.89;100.00
13420;BME280;6781;58.440;15.470;2023-04-28T06:14:37;101247.63;;;4.07;100.00
13420;BME280;6781;58.440;15.470;2023-04-28T06:17:06;101195.41;;;3.87;100.00
13420;BME280;6781;58.440;15.470;2023-04-28T06:19:34;100972.84;;;2.74;100.00
13420;BME280;6781;58.440;15.470;2023-04-28T06:22:01;100989.78;;;3.18;100.00
13420;BME280;6781;58.440;15.470;2023-04-28T06:24:28;100874.56;;;2.76;100.00
13420;BME280;6781;58.440;15.470;2023-04-28T06:26:55;100914.59;;;3.38;100.00
13420;BME280;6781;58.440;15.470;2023-04-28T06:29:23;100994.81;;;3.98;100.00
13420;BME280;6781;58.440;15.470;2023-04-28T06:31:52;101097.84;;;4.47;100.00
13420;BME280;6781;58.440;15.470;2023-04-28T06:34:23;101049.53;;;4.55;100.00
13420;BME280;6781;58.440;15.470;2023-04-28T06:36:53;101071.56;;;4.78;100.00
13420;BME280;6781;58.440;15.470;2023-04-28T06:39:21;100997.66;;;4.66;100.00
13420;BME280;6781;58.440;15.470;2023-04-28T06:41:48;101034.84;;;4.76;100.00
13420;BME280;6781;58.440;15.470;2023-04-28T06:44:15;101001.41;;;4.58;100.00
13420;BME280;6781;58.440;15.470;2023-04-28T06:46:42;101026.38;;;4.74;100.00
13420;BME280;6781;58.440;15.470;2023-04-28T06:49:09;100880.00;;;4.20;100.00
13420;BME280;6781;58.440;15.470;2023-04-28T06:51:38;100941.16;;;4.66;100.00
13420;BME280;6781;58.440;15.470;2023-04-28T06:54:05;100871.78;;;4.31;100.00
13420;BME280;6781;58.440;15.470;2023-04-28T06:56:32;100829.09;;;3.94;100.00
13420;BME280;6781;58.440;15.470;2023-04-28T06:59:01;100948.09;;;4.81;100.00
13420;BME280;6781;58.440;15.470;2023-04-28T07:01:28;100816.97;;;4.15;100.00
13420;BME280;6781;58.440;15.470;2023-04-28T07:03:55;100933.81;;;5.10;100.00
13420;BME280;6781;58.440;15.470;2023-04-28T07:06:22;100972.97;;;5.31;100.00
13420;BME280;6781;58.440;15.470;2023-04-28T07:08:53;100972.13;;;5.47;100.00
13420;BME280;6781;58.440;15.470;2023-04-28T07:11:20;100942.31;;;5.43;100.00
13420;BME280;6781;58.440;15.470;2023-04-28T07:13:47;100921.25;;;5.37;100.00
13420;BME280;6781;58.440;15.470;2023-04-28T07:16:16;100805.56;;;4.55;100.00
13420;BME280;6781;58.440;15.470;2023-04-28T07:18:43;100938.69;;;5.47;100.00
13420;BME280;6781;58.440;15.470;2023-04-28T07:21:10;100955.81;;;5.64;100.00
13420;BME280;6781;58.440;15.470;2023-04-28T07:23:37;100809.06;;;4.87;100.00
13420;BME280;6781;58.440;15.470;2023-04-28T07:26:06;100968.50;;;6.00;100.00
13420;BME280;6781;58.440;15.470;2023-04-28T07:28:34;100889.69;;;5.82;100.00
13420;BME280;6781;58.440;15.470;2023-04-28T07:31:01;100748.69;;;5.41;100.00
13420;BME280;6781;58.440;15.470;2023-04-28T07:33:28;100763.78;;;5.63;100.00
13420;BME280;6781;58.440;15.470;2023-04-28T07:35:55;100842.22;;;6.33;100.00
13420;BME280;6781;58.440;15.470;2023-04-28T07:38:22;100784.66;;;6.04;100.00
13420;BME280;6781;58.440;15.470;2023-04-28T07:40:50;100665.75;;;5.38;100.00
13420;BME280;6781;58.440;15.470;2023-04-28T07:43:18;100659.09;;;5.49;100.00
13420;BME280;6781;58.440;15.470;2023-04-28T07:45:46;100918.72;;;7.05;100.00
13420;BME280;6781;58.440;15.470;2023-04-28T07:48:14;100822.38;;;6.49;100.00
13420;BME280;6781;58.440;15.470;2023-04-28T07:50:44;100812.59;;;6.40;100.00
13420;BME280;6781;58.440;15.470;2023-04-28T07:53:12;100651.72;;;5.73;100.00
13420;BME280;6781;58.440;15.470;2023-04-28T07:55:39;100815.38;;;6.94;100.00
13420;BME280;6781;58.440;15.470;2023-04-28T07:58:09;100655.47;;;5.98;100.00
13420;BME280;6781;58.440;15.470;2023-04-28T08:00:38;100793.66;;;6.98;100.00
13420;BME280;6781;58.440;15.470;2023-04-28T08:03:05;100889.97;;;7.54;100.00
13420;BME280;6781;58.440;15.470;2023-04-28T08:05:32;100776.38;;;6.72;100.00
13420;BME280;6781;58.440;15.470;2023-04-28T08:08:02;100655.66;;;6.23;100.00
13420;BME280;6781;58.440;15.470;2023-04-28T08:10:29;100820.00;;;7.17;100.00
13420;BME280;6781;58.440;15.470;2023-04-28T08:12:57;100789.56;;;7.37;100.00
13420;BME280;6781;58.440;15.470;2023-04-28T08:15:24;100771.34;;;7.53;100.00
13420;BME280;6781;58.440;15.470;2023-04-28T08:17:53;100666.03;;;7.05;100.00
13420;BME280;6781;58.440;15.470;2023-04-28T08:20:20;100882.66;;;8.81;100.00
13420;BME280;6781;58.440;15.470;2023-04-28T08:22:47;100789.66;;;8.29;100.00
13420;BME280;6781;58.440;15.470;2023-04-28T08:25:14;100766.72;;;7.84;100.00
13420;BME280;6781;58.440;15.470;2023-04-28T08:27:43;100757.72;;;7.50;100.00
13420;BME280;6781;58.440;15.470;2023-04-28T08:30:10;100862.81;;;8.29;100.00
13420;BME280;6781;58.440;15.470;2023-04-28T08:32:37;100688.38;;;7.59;100.00
13420;BME280;6781;58.440;15.470;2023-04-28T08:35:07;100873.44;;;9.02;100.00
13420;BME280;6781;58.440;15.470;2023-04-28T08:37:35;100718.69;;;8.34;100.00
13420;BME280;6781;58.440;15.470;2023-04-28T08:40:03;100666.88;;;7.98;100.00
13420;BME280;6781;58.440;15.470;2023-04-28T08:42:34;100655.19;;;7.92;100.00
13420;BME280;6781;58.440;15.470;2023-04-28T08:45:03;100656.41;;;7.74;100.00
13420;BME280;6781;58.440;15.470;2023-04-28T08:47:33;100849.34;;;8.89;100.00
13420;BME280;6781;58.440;15.470;2023-04-28T08:50:07;100649.97;;;7.54;100.00
13420;BME280;6781;58.440;15.470;2023-04-28T08:52:35;100733.59;;;8.04;99.32
13420;BME280;6781;58.440;15.470;2023-04-28T08:55:05;100859.78;;;9.00;100.00
13420;BME280;6781;58.440;15.470;2023-04-28T08:57:36;100891.44;;;9.17;100.00
13420;BME280;6781;58.440;15.470;2023-04-28T09:00:05;100699.53;;;8.24;100.00
13420;BME280;6781;58.440;15.470;2023-04-28T09:02:35;100756.41;;;8.62;100.00
13420;BME280;6781;58.440;15.470;2023-04-28T09:05:07;100654.78;;;7.86;100.00
13420;BME280;6781;58.440;15.470;2023-04-28T09:07:38;100648.88;;;7.71;98.18
13420;BME280;6781;58.440;15.470;2023-04-28T09:10:15;100697.06;;;8.35;98.09
13420;BME280;6781;58.440;15.470;2023-04-28T09:12:43;100676.38;;;8.10;96.67
13420;BME280;6781;58.440;15.470;2023-04-28T09:15:10;100663.88;;;8.04;94.89
13420;BME280;6781;58.440;15.470;2023-04-28T09:17:54;100663.75;;;7.80;94.29
13420;BME280;6781;58.440;15.470;2023-04-28T09:20:23;100801.47;;;8.71;94.49
13420;BME280;6781;58.440;15.470;2023-04-28T09:22:53;100638.44;;;7.72;91.29
13420;BME280;6781;58.440;15.470;2023-04-28T09:25:23;100902.41;;;9.33;94.18
13420;BME280;6781;58.440;15.470;2023-04-28T09:27:51;100726.94;;;8.65;93.34
13420;BME280;6781;58.440;15.470;2023-04-28T09:30:18;100848.81;;;8.97;89.20
13420;BME280;6781;58.440;15.470;2023-04-28T09:33:03;100643.72;;;8.22;89.55
13420;BME280;6781;58.440;15.470;2023-04-28T09:35:42;100652.00;;;8.39;90.46
13420;BME280;6781;58.440;15.470;2023-04-28T09:38:11;100641.25;;;8.33;87.31
13420;BME280;6781;58.440;15.470;2023-04-28T09:40:52;100711.78;;;8.84;85.07
13420;BME280;6781;58.440;15.470;2023-04-28T09:43:27;100785.13;;;10.04;86.05
13420;BME280;6781;58.440;15.470;2023-04-28T09:45:59;100772.69;;;9.61;86.69
13420;BME280;6781;58.440;15.470;2023-04-28T09:48:30;100721.78;;;9.49;87.41
13420;BME280;6781;58.440;15.470;2023-04-28T09:51:01;100661.53;;;9.47;87.79
13420;BME280;6781;58.440;15.470;2023-04-28T09:53:40;100764.19;;;10.18;88.15
13420;BME280;6781;58.440;15.470;2023-04-28T09:56:11;100651.84;;;9.38;87.52
13420;BME280;6781;58.440;15.470;2023-04-28T09:58:56;100639.47;;;9.06;86.00
13420;BME280;6781;58.440;15.470;2023-04-28T10:01:27;100620.53;;;9.06;87.87
13420;BME280;6781;58.440;15.470;2023-04-28T10:04:07;100624.00;;;9.18;84.20
13420;BME280;6781;58.440;15.470;2023-04-28T10:06:41;100616.31;;;9.75;85.96
13420;BME280;6781;58.440;15.470;2023-04-28T10:09:10;100743.38;;;10.75;82.45
13420;BME280;6781;58.440;15.470;2023-04-28T10:11:39;100721.78;;;10.19;78.77
13420;BME280;6781;58.440;15.470;2023-04-28T10:14:12;100693.13;;;9.98;81.22
13420;BME280;6781;58.440;15.470;2023-04-28T10:16:39;100615.16;;;9.44;80.34
13420;BME280;6781;58.440;15.470;2023-04-28T10:19:23;100609.16;;;10.12;81.36
13420;BME280;6781;58.440;15.470;2023-04-28T10:22:01;100599.63;;;10.13;80.24
13420;BME280;6781;58.440;15.470;2023-04-28T10:25:07;100609.41;;;10.31;80.00
13420;BME280;6781;58.440;15.470;2023-04-28T10:27:40;100739.81;;;11.21;77.13
13420;BME280;6781;58.440;15.470;2023-04-28T10:30:12;100744.81;;;11.45;79.64
13420;BME280;6781;58.440;15.470;2023-04-28T10:32:40;100749.59;;;11.61;79.96
13420;BME280;6781;58.440;15.470;2023-04-28T10:38:15;100628.06;;;9.68;75.13
13420;BME280;6781;58.440;15.470;2023-04-28T10:40:43;100625.88;;;10.19;76.65
13420;BME280;6781;58.440;15.470;2023-04-28T10:43:40;100623.00;;;9.77;78.09
13420;BME280;6781;58.440;15.470;2023-04-28T10:46:08;100604.69;;;10.03;78.51
13420;BME280;6781;58.440;15.470;2023-04-28T10:48:56;100616.88;;;9.67;75.60
13420;BME280;6781;58.440;15.470;2023-04-28T10:51:36;100618.34;;;9.94;74.01
13420;BME280;6781;58.440;15.470;2023-04-28T10:54:19;100698.25;;;10.67;78.71
13420;BME280;6781;58.440;15.470;2023-04-28T10:57:18;100851.56;;;11.08;75.75
13420;BME280;6781;58.440;15.470;2023-04-28T10:59:48;100624.28;;;9.26;73.11
13420;BME280;6781;58.440;15.470;2023-04-28T11:02:42;100650.06;;;9.62;75.26
13420;BME280;6781;58.440;15.470;2023-04-28T11:05:16;100590.97;;;8.62;70.47
13420;BME280;6781;58.440;15.470;2023-04-28T11:11:21;100616.69;;;9.11;77.83
13420;BME280;6781;58.440;15.470;2023-04-28T11:13:51;100846.16;;;9.84;69.98
13420;BME280;6781;58.440;15.470;2023-04-28T11:16:21;100795.94;;;9.50;70.56
13420;BME280;6781;58.440;15.470;2023-04-28T11:18:57;100614.28;;;8.97;75.22
13420;BME280;6781;58.440;15.470;2023-04-28T11:21:29;100655.06;;;9.18;76.05
13420;BME280;6781;58.440;15.470;2023-04-28T11:24:07;100645.97;;;9.36;76.96
13420;BME280;6781;58.440;15.470;2023-04-28T11:26:38;100821.75;;;10.34;74.22
13420;BME280;6781;58.440;15.470;2023-04-28T11:29:08;100635.25;;;9.05;77.08
13420;BME280;6781;58.440;15.470;2023-04-28T11:31:36;100747.13;;;9.81;77.52
13420;BME280;6781;58.440;15.470;2023-04-28T11:34:06;100698.44;;;9.38;71.77
13420;BME280;6781;58.440;15.470;2023-04-28T11:36:37;100727.03;;;9.60;74.62
13420;BME280;6781;58.440;15.470;2023-04-28T11:39:08;100621.66;;;8.91;75.18
13420;BME280;6781;58.440;15.470;2023-04-28T11:41:43;100605.47;;;8.76;70.50
13420;BME280;6781;58.440;15.470;2023-04-28T11:44:13;100599.47;;;8.75;68.56
13420;BME280;6781;58.440;15.470;2023-04-28T11:46:44;100627.69;;;9.02;69.74
13420;BME280;6781;58.440;15.470;2023-04-28T11:49:15;100603.53;;;9.14;69.39
13420;BME280;6781;58.440;15.470;2023-04-28T11:51:44;100685.81;;;9.57;70.32
13420;BME280;6781;58.440;15.470;2023-04-28T11:54:22;100597.75;;;9.11;68.14
13420;BME280;6781;58.440;15.470;2023-04-28T11:57:29;100628.81;;;9.11;67.51
13420;BME280;6781;58.440;15.470;2023-04-28T12:00:14;100597.38;;;9.04;68.45
13420;BME280;6781;58.440;15.470;2023-04-28T12:02:46;100743.53;;;10.05;66.80
13420;BME280;6781;58.440;15.470;2023-04-28T12:05:13;100643.78;;;10.00;66.84
13420;BME280;6781;58.440;15.470;2023-04-28T12:07:41;100824.38;;;11.46;67.92
13420;BME280;6781;58.440;15.470;2023-04-28T12:10:10;100712.72;;;10.69;68.11
13420;BME280;6781;58.440;15.470;2023-04-28T12:12:42;100594.19;;;9.82;62.65
13420;BME280;6781;58.440;15.470;2023-04-28T12:15:10;100628.19;;;10.67;67.30
13420;BME280;6781;58.440;15.470;2023-04-28T12:17:38;100837.06;;;12.15;63.38
13420;BME280;6781;58.440;15.470;2023-04-28T12:20:07;100733.66;;;11.65;64.15
13420;BME280;6781;58.440;15.470;2023-04-28T12:22:45;100800.84;;;12.44;62.53
13420;BME280;6781;58.440;15.470;2023-04-28T12:25:28;100606.22;;;11.46;60.60
13420;BME280;6781;58.440;15.470;2023-04-28T12:28:19;100854.56;;;12.75;61.21
13420;BME280;6781;58.440;15.470;2023-04-28T12:31:04;100624.84;;;10.87;57.32
13420;BME280;6781;58.440;15.470;2023-04-28T12:33:53;100598.75;;;11.32;60.39
13420;BME280;6781;58.440;15.470;2023-04-28T12:36:31;100822.28;;;12.57;54.31
13420;BME280;6781;58.440;15.470;2023-04-28T12:39:27;100620.28;;;11.44;57.27
13420;BME280;6781;58.440;15.470;2023-04-28T12:41:57;100620.16;;;11.45;57.46
13420;BME280;6781;58.440;15.470;2023-04-28T12:44:42;100615.47;;;11.39;57.27
13420;BME280;6781;58.440;15.470;2023-04-28T12:47:20;100600.63;;;11.30;56.03
13420;BME280;6781;58.440;15.470;2023-04-28T12:50:01;100600.88;;;11.27;56.59
13420;BME280;6781;58.440;15.470;2023-04-28T12:52:35;100650.25;;;12.10;55.69
13420;BME280;6781;58.440;15.470;2023-04-28T12:55:22;100557.34;;;10.98;52.96
13420;BME280;6781;58.440;15.470;2023-04-28T12:57:51;100680.50;;;12.11;57.95
13420;BME280;6781;58.440;15.470;2023-04-28T13:00:20;100745.78;;;12.69;57.80
13420;BME280;6781;58.440;15.470;2023-04-28T13:02:49;100773.56;;;13.29;58.99
13420;BME280;6781;58.440;15.470;2023-04-28T13:05:17;100760.94;;;13.34;55.96
13420;BME280;6781;58.440;15.470;2023-04-28T13:07:45;100756.56;;;13.45;59.20
13420;BME280;6781;58.440;15.470;2023-04-28T13:10:12;100817.44;;;13.34;52.89
13420;BME280;6781;58.440;15.470;2023-04-28T13:12:39;100668.13;;;12.74;57.24
13420;BME280;6781;58.440;15.470;2023-04-28T13:15:08;100642.16;;;12.03;53.12